Time;durP1;ratioP1;P1;durP2;ratioP2;P2;SDS_P1;SDS_P2;PMS_P1;PMS_P2;Temp;Humidity;BMP_temperature;BMP_pressure;BME280_temperature;BME280_humidity;BME280_pressure;Samples;Min_cycle;Max_cycle;Signal;HPM_P1;HPM_P2
2022/03/19 00:00:22;;;;;;;;;70.33;53.33;;;;;11.40;76.13;100510.09;5045105;28;45588;-72
2022/03/19 00:02:47;;;;;;;;;72.75;55.50;;;;;11.40;76.15;100503.97;5047712;28;45797;-72
2022/03/19 00:05:13;;;;;;;;;69.00;53.00;;;;;11.37;76.07;100501.41;5044606;28;45553;-72
2022/03/19 00:07:41;;;;;;;;;71.75;55.25;;;;;11.35;76.14;100503.22;5044281;28;46519;-72
2022/03/19 00:10:10;;;;;;;;;73.00;54.67;;;;;11.33;76.14;100500.59;5045135;28;45510;-72
2022/03/19 00:12:40;;;;;;;;;68.33;52.00;;;;;11.34;76.17;100493.56;5042605;28;45555;-72
2022/03/19 00:15:07;;;;;;;;;73.33;57.00;;;;;11.34;76.01;100501.47;5044885;28;45686;-72
2022/03/19 00:17:33;;;;;;;;;72.33;55.67;;;;;11.32;75.88;100500.63;5046201;28;45473;-72
2022/03/19 00:19:58;;;;;;;;;63.00;51.00;;;;;11.31;75.88;100502.41;5043605;28;45640;-72
2022/03/19 00:22:23;;;;;;;;;70.00;55.33;;;;;11.30;76.01;100498.03;5044955;28;45539;-80
2022/03/19 00:24:49;;;;;;;;;71.00;53.67;;;;;11.29;75.91;100501.56;5045316;28;45726;-72
2022/03/19 00:27:14;;;;;;;;;67.00;53.67;;;;;11.28;75.93;100501.59;5045038;28;45577;-81
2022/03/19 00:29:40;;;;;;;;;70.33;55.33;;;;;11.29;75.65;100509.47;5050510;28;45525;-81
2022/03/19 00:32:06;;;;;;;;;70.67;55.00;;;;;11.29;75.68;100509.47;5051156;28;45538;-81
2022/03/19 00:34:32;;;;;;;;;72.33;54.33;;;;;11.30;75.45;100507.72;5052154;28;45618;-82
2022/03/19 00:36:58;;;;;;;;;66.00;51.00;;;;;11.28;75.41;100510.38;5047570;28;48120;-81
2022/03/19 00:39:24;;;;;;;;;62.33;49.00;;;;;11.27;75.08;100520.97;5050215;28;45596;-81
2022/03/19 00:41:50;;;;;;;;;72.67;55.33;;;;;11.24;75.54;100513.97;5055028;28;45425;-81
2022/03/19 00:44:16;;;;;;;;;70.67;55.00;;;;;11.25;75.50;100518.34;5065137;28;45566;-81
2022/03/19 00:46:44;;;;;;;;;69.67;54.00;;;;;11.26;75.30;100513.94;5055196;28;45585;-82
2022/03/19 00:49:09;;;;;;;;;68.33;53.33;;;;;11.27;75.64;100521.84;5033657;28;45413;-81
2022/03/19 00:51:38;;;;;;;;;71.00;55.00;;;;;11.28;75.52;100518.31;5051699;28;45508;-81
2022/03/19 00:54:04;;;;;;;;;74.00;58.25;;;;;11.26;75.62;100529.78;5034780;28;45897;-82
2022/03/19 00:56:29;;;;;;;;;75.50;57.25;;;;;11.27;75.67;100516.56;5039548;28;45440;-73
2022/03/19 00:58:55;;;;;;;;;71.33;55.67;;;;;11.27;75.59;100513.91;5051537;28;45378;-73
2022/03/19 01:01:20;;;;;;;;;70.75;53.00;;;;;11.27;75.67;100519.19;5053362;28;45457;-73
2022/03/19 01:03:46;;;;;;;;;70.67;53.33;;;;;11.26;75.87;100527.16;5053878;28;45357;-73
2022/03/19 01:06:11;;;;;;;;;70.00;52.00;;;;;11.25;75.71;100518.34;5035484;28;47099;-73
2022/03/19 01:08:37;;;;;;;;;72.00;54.33;;;;;11.24;75.58;100524.53;5052485;28;45365;-74
2022/03/19 01:11:03;;;;;;;;;70.00;53.00;;;;;11.24;75.58;100518.38;5053782;28;45243;-74
2022/03/19 01:13:28;;;;;;;;;68.33;53.00;;;;;11.24;75.86;100523.66;5051620;28;45509;-73
2022/03/19 01:15:54;;;;;;;;;71.33;57.00;;;;;11.22;75.88;100520.22;5054506;28;45904;-82
2022/03/19 01:18:19;;;;;;;;;73.67;55.67;;;;;11.18;75.92;100527.31;5054009;28;45563;-82
2022/03/19 01:20:45;;;;;;;;;69.00;54.00;;;;;11.15;75.82;100520.31;5053800;28;45429;-82
2022/03/19 01:23:11;;;;;;;;;66.00;52.33;;;;;11.16;76.00;100526.47;5053432;28;45305;-82
2022/03/19 01:25:36;;;;;;;;;76.50;59.50;;;;;11.17;76.00;100520.28;5054502;28;45420;-82
2022/03/19 01:28:02;;;;;;;;;70.33;54.33;;;;;11.17;75.89;100529.09;5053613;28;45520;-81
2022/03/19 01:30:27;;;;;;;;;72.50;57.00;;;;;11.20;75.66;100528.16;5054348;28;45439;-82
2022/03/19 01:32:53;;;;;;;;;76.25;57.25;;;;;11.19;75.66;100523.78;5041562;28;45390;-81
2022/03/19 01:35:19;;;;;;;;;71.67;54.67;;;;;11.22;75.56;100536.06;5046763;28;45247;-81
2022/03/19 01:37:46;;;;;;;;;74.00;55.00;;;;;11.21;75.57;100534.31;5029948;28;45196;-82
2022/03/19 01:40:13;;;;;;;;;72.50;54.75;;;;;11.22;75.34;100534.28;5047223;28;45450;-82
2022/03/19 01:42:47;;;;;;;;;66.33;51.00;;;;;11.23;75.59;100527.22;5026984;28;45461;-82
2022/03/19 01:45:17;;;;;;;;;73.00;56.25;;;;;11.22;75.49;100541.34;5039619;28;45417;-82
2022/03/19 01:47:43;;;;;;;;;73.00;54.67;;;;;11.21;75.61;100547.50;5037633;28;45432;-81
2022/03/19 01:50:11;;;;;;;;;69.67;56.00;;;;;11.20;75.39;100538.72;5041231;28;45477;-82
2022/03/19 01:52:37;;;;;;;;;72.00;56.50;;;;;11.21;75.21;100539.59;5022897;28;45482;-81
2022/03/19 01:55:06;;;;;;;;;79.25;62.25;;;;;11.20;75.55;100538.72;5035803;28;46524;-81
2022/03/19 01:57:37;;;;;;;;;70.00;55.25;;;;;11.21;75.42;100543.09;5037790;28;45484;-82
2022/03/19 02:00:05;;;;;;;;;73.75;55.25;;;;;11.21;75.18;100540.47;5035271;28;45371;-82
2022/03/19 02:02:31;;;;;;;;;69.50;54.00;;;;;11.21;75.06;100534.31;5041010;28;45412;-82
2022/03/19 02:04:59;;;;;;;;;69.25;54.50;;;;;11.21;74.88;100531.66;5040269;28;46190;-81
2022/03/19 02:07:24;;;;;;;;;74.25;56.75;;;;;11.18;74.99;100533.47;5037433;28;45426;-82
2022/03/19 02:09:50;;;;;;;;;70.75;56.00;;;;;11.16;74.93;100532.63;5038892;28;45402;-82
2022/03/19 02:12:15;;;;;;;;;72.33;54.67;;;;;11.15;75.20;100530.00;5024390;28;45318;-82
2022/03/19 02:14:41;;;;;;;;;67.33;54.00;;;;;11.16;75.24;100529.13;5050020;28;46616;-82
2022/03/19 02:17:09;;;;;;;;;74.50;57.25;;;;;11.18;75.30;100524.69;5051993;28;45234;-82
2022/03/19 02:19:49;;;;;;;;;74.50;60.25;;;;;11.19;75.30;100526.41;5028412;28;45257;-82
2022/03/19 02:22:16;;;;;;;;;71.00;56.00;;;;;11.21;75.20;100514.06;5031065;28;45388;-82
2022/03/19 02:27:26;;;;;;;;;70.75;55.75;;;;;11.19;74.96;100516.72;5031508;28;45362;-82
2022/03/19 02:29:52;;;;;;;;;67.00;53.25;;;;;11.20;74.89;100520.25;5046752;28;45974;-82
2022/03/19 02:32:17;;;;;;;;;73.25;56.00;;;;;11.21;74.71;100521.13;5037679;28;45524;-82
2022/03/19 02:34:43;;;;;;;;;73.33;56.00;;;;;11.20;75.08;100514.97;5054786;28;46467;-82
2022/03/19 02:37:08;;;;;;;;;70.25;55.25;;;;;11.20;74.48;100520.25;5039600;28;45395;-82
2022/03/19 02:39:34;;;;;;;;;71.25;53.00;;;;;11.18;74.65;100519.41;5050145;28;45439;-81
2022/03/19 02:42:05;;;;;;;;;73.00;55.00;;;;;11.17;74.61;100523.81;5044564;28;45513;-82
2022/03/19 02:44:31;;;;;;;;;68.67;53.33;;;;;11.17;74.50;100529.09;5056324;28;46297;-82
2022/03/19 02:46:59;;;;;;;;;69.25;55.50;;;;;11.17;74.85;100525.56;5050450;28;45510;-82
2022/03/19 02:49:25;;;;;;;;;72.25;56.75;;;;;11.14;74.87;100523.88;5046312;28;45313;-82
2022/03/19 02:51:53;;;;;;;;;76.00;56.67;;;;;11.12;74.91;100523.03;5051580;28;45325;-82
2022/03/19 02:54:21;;;;;;;;;72.25;56.00;;;;;11.13;74.91;100526.53;5057037;28;46221;-82
2022/03/19 02:56:47;;;;;;;;;75.00;56.50;;;;;11.13;74.72;100524.75;5048912;28;45486;-81
2022/03/19 02:59:22;;;;;;;;;71.75;54.50;;;;;11.12;74.75;100520.38;5054130;28;45521;-82
2022/03/19 03:01:49;;;;;;;;;71.75;55.00;;;;;11.14;74.26;100520.34;5055031;28;45585;-82
2022/03/19 03:04:15;;;;;;;;;70.25;53.00;;;;;11.12;74.39;100515.09;5053937;28;45608;-82
2022/03/19 03:06:43;;;;;;;;;72.50;55.50;;;;;11.13;74.26;100521.25;5053743;28;45520;-82
2022/03/19 03:09:10;;;;;;;;;68.67;51.33;;;;;11.13;74.41;100518.63;5057444;28;45413;-81
2022/03/19 03:11:36;;;;;;;;;73.67;55.33;;;;;11.12;74.16;100519.50;5030380;28;45600;-82
2022/03/19 03:14:03;;;;;;;;;68.25;53.50;;;;;11.10;74.65;100526.59;5055106;28;46018;-82
2022/03/19 03:16:32;;;;;;;;;73.25;55.75;;;;;11.06;74.91;100528.41;5038486;28;45361;-81
2022/03/19 03:19:01;;;;;;;;;70.25;54.25;;;;;11.04;74.65;100532.00;5056547;28;45477;-81
2022/03/19 03:21:29;;;;;;;;;70.00;55.00;;;;;11.04;74.92;100532.00;5033874;28;45477;-81
2022/03/19 03:23:55;;;;;;;;;70.33;55.00;;;;;11.05;74.62;100526.69;5034623;28;48209;-82
2022/03/19 03:26:21;;;;;;;;;74.00;55.00;;;;;11.06;74.44;100525.78;5050492;28;45450;-82
2022/03/19 03:28:47;;;;;;;;;68.67;54.00;;;;;11.08;74.43;100533.66;5053535;28;45579;-82
2022/03/19 03:31:13;;;;;;;;;70.67;53.33;;;;;11.12;74.59;100532.72;5044398;28;45714;-82
2022/03/19 03:33:38;;;;;;;;;71.33;54.33;;;;;11.12;74.61;100525.66;5036053;28;45418;-82
2022/03/19 03:36:04;;;;;;;;;71.67;54.33;;;;;11.13;74.37;100534.44;5034699;28;45399;-82
2022/03/19 03:38:29;;;;;;;;;53.25;40.25;;;;;11.13;74.02;100543.25;5036221;28;45232;-82
2022/03/19 03:40:55;;;;;;;;;50.50;40.50;;;;;11.10;74.47;100548.56;5036470;28;45540;-81
2022/03/19 03:43:21;;;;;;;;;69.00;54.33;;;;;11.05;74.64;100539.91;5033200;28;45435;-82
2022/03/19 03:45:48;;;;;;;;;66.67;50.33;;;;;11.01;74.58;100548.75;5036135;28;45224;-82
2022/03/19 03:48:13;;;;;;;;;64.33;48.33;;;;;10.99;74.43;100550.56;5036062;28;45413;-82
2022/03/19 03:50:40;;;;;;;;;58.67;45.33;;;;;10.95;73.57;100553.28;5035849;28;45439;-81
2022/03/19 03:53:05;;;;;;;;;59.67;44.00;;;;;10.83;73.20;100554.38;5035610;28;47073;-82
2022/03/19 03:55:32;;;;;;;;;60.33;44.33;;;;;10.73;73.60;100551.00;5035727;28;45433;-82
2022/03/19 03:58:00;;;;;;;;;58.67;47.00;;;;;10.64;73.62;100553.84;5044230;28;45477;-82
2022/03/19 04:00:26;;;;;;;;;50.00;41.67;;;;;10.56;73.85;100547.81;5017375;28;45379;-82
2022/03/19 04:02:52;;;;;;;;;57.00;44.67;;;;;10.51;74.22;100552.31;5034744;28;45475;-81
2022/03/19 04:05:17;;;;;;;;;62.33;49.00;;;;;10.45;74.13;100547.13;5034596;28;45392;-82
2022/03/19 04:07:43;;;;;;;;;58.67;46.00;;;;;10.39;74.38;100552.53;5035155;28;45480;-82
2022/03/19 04:10:08;;;;;;;;;55.33;44.00;;;;;10.36;74.47;100555.19;5035334;28;45509;-81
2022/03/19 04:12:35;;;;;;;;;59.33;44.00;;;;;10.33;74.61;100556.13;5034300;28;45642;-81
2022/03/19 04:15:01;;;;;;;;;58.67;45.67;;;;;10.31;74.63;100560.53;5035247;28;45339;-81
2022/03/19 04:17:26;;;;;;;;;49.00;40.67;;;;;10.29;74.72;100558.81;5035457;28;45241;-82
2022/03/19 04:19:51;;;;;;;;;55.00;43.67;;;;;10.28;74.72;100562.34;5035113;28;45534;-82
2022/03/19 04:22:17;;;;;;;;;56.00;44.00;;;;;10.25;74.58;100555.34;5035037;28;45396;-82
2022/03/19 04:24:42;;;;;;;;;55.33;43.33;;;;;10.23;74.92;100556.28;5034800;28;45471;-82
2022/03/19 04:27:09;;;;;;;;;51.00;41.33;;;;;10.15;75.03;100556.38;5034881;28;45373;-82
2022/03/19 04:29:34;;;;;;;;;54.00;42.00;;;;;10.11;75.23;100550.28;5035688;28;45248;-81
2022/03/19 04:32:00;;;;;;;;;55.67;43.00;;;;;10.11;75.18;100554.66;5023722;28;46774;-81
2022/03/19 04:34:25;;;;;;;;;54.00;42.67;;;;;10.12;74.93;100556.41;5055454;28;45311;-81
2022/03/19 04:36:51;;;;;;;;;55.67;45.00;;;;;10.13;75.13;100552.88;5054336;28;45332;-81
2022/03/19 04:39:17;;;;;;;;;58.67;44.67;;;;;10.13;75.10;100553.75;5055531;28;45496;-81
2022/03/19 04:41:42;;;;;;;;;57.67;45.00;;;;;10.12;75.08;100548.50;5054874;28;45599;-81
2022/03/19 04:44:08;;;;;;;;;52.67;42.00;;;;;10.10;75.23;100556.44;5036901;28;45601;-82
2022/03/19 04:46:35;;;;;;;;;50.33;39.33;;;;;10.10;75.30;100548.53;5055159;28;45489;-81
2022/03/19 04:49:01;;;;;;;;;57.33;45.00;;;;;10.13;75.38;100552.88;5054117;28;45526;-82
2022/03/19 04:51:33;;;;;;;;;52.00;40.33;;;;;10.15;75.48;100545.84;5053405;28;45467;-81
2022/03/19 04:53:59;;;;;;;;;62.33;45.33;;;;;10.16;75.44;100544.94;5033838;28;45578;-82
2022/03/19 04:56:27;;;;;;;;;54.00;44.33;;;;;10.17;75.47;100543.16;5054599;28;45420;-82
2022/03/19 04:58:54;;;;;;;;;58.67;45.00;;;;;10.18;75.86;100540.50;5053675;28;45502;-82
2022/03/19 05:01:21;;;;;;;;;58.00;47.67;;;;;10.22;75.72;100536.94;5052923;28;45429;-81
2022/03/19 05:03:47;;;;;;;;;64.67;51.00;;;;;10.26;75.33;100540.41;5053254;28;45369;-82
2022/03/19 05:06:12;;;;;;;;;62.67;49.00;;;;;10.29;75.53;100538.59;5053196;28;45390;-82
2022/03/19 05:08:38;;;;;;;;;56.00;44.67;;;;;10.32;76.05;100542.97;5054381;28;45519;-81
2022/03/19 05:11:13;;;;;;;;;63.00;49.00;;;;;10.33;76.15;100542.94;5048623;28;46229;-81
2022/03/19 05:13:41;;;;;;;;;68.00;51.00;;;;;10.35;76.11;100537.63;5048468;28;45506;-81
2022/03/19 05:16:07;;;;;;;;;68.33;52.67;;;;;10.38;75.94;100541.09;5044759;28;45383;-81
2022/03/19 05:18:33;;;;;;;;;72.67;53.33;;;;;10.41;76.05;100538.38;5054372;28;45389;-81
2022/03/19 05:20:58;;;;;;;;;71.00;55.33;;;;;10.45;75.76;100537.44;5054521;28;46372;-82
2022/03/19 05:23:24;;;;;;;;;69.33;54.33;;;;;10.48;75.35;100542.69;5054529;28;45272;-82
2022/03/19 05:25:50;;;;;;;;;76.00;58.25;;;;;10.51;75.32;100540.88;5035424;28;45204;-82
2022/03/19 05:28:16;;;;;;;;;70.25;55.50;;;;;10.52;75.24;100538.22;5054373;28;45632;-82
2022/03/19 05:30:42;;;;;;;;;70.00;55.33;;;;;10.56;74.79;100545.16;5041232;28;46185;-81
2022/03/19 05:33:08;;;;;;;;;75.00;57.33;;;;;10.58;74.65;100548.66;5049609;28;45375;-82
2022/03/19 05:35:33;;;;;;;;;72.75;55.00;;;;;10.59;74.55;100550.41;5059806;28;45405;-82
2022/03/19 05:38:00;;;;;;;;;73.50;56.50;;;;;10.60;74.56;100552.13;5036415;28;45573;-82
2022/03/19 05:40:26;;;;;;;;;77.75;58.50;;;;;10.62;74.66;100554.75;5054429;28;45433;-81
2022/03/19 05:42:52;;;;;;;;;73.00;57.00;;;;;10.63;74.67;100560.00;5063537;28;45382;-81
2022/03/19 05:45:20;;;;;;;;;76.00;55.75;;;;;10.66;74.42;100559.09;5044138;28;45477;-81
2022/03/19 05:47:45;;;;;;;;;74.50;56.75;;;;;10.66;74.37;100559.09;5058080;28;45488;-81
2022/03/19 05:50:12;;;;;;;;;74.75;55.00;;;;;10.67;74.25;100563.47;5058105;28;45348;-82
2022/03/19 05:52:38;;;;;;;;;70.50;55.25;;;;;10.68;74.30;100565.22;5068953;28;45462;-81
2022/03/19 05:55:04;;;;;;;;;77.50;58.00;;;;;10.68;74.05;100563.44;5056599;28;45403;-82
2022/03/19 05:57:30;;;;;;;;;71.00;54.00;;;;;10.67;73.73;100563.47;5056805;28;45409;-81
2022/03/19 05:59:58;;;;;;;;;73.50;56.75;;;;;10.67;73.56;100563.47;5036933;28;47053;-81
2022/03/19 06:02:23;;;;;;;;;69.67;55.67;;;;;10.67;73.80;100559.06;5051868;28;45425;-82
2022/03/19 06:04:48;;;;;;;;;70.50;54.50;;;;;10.69;73.92;100564.31;5056687;28;45458;-82
2022/03/19 06:07:14;;;;;;;;;76.75;57.25;;;;;10.69;73.69;100569.59;5056989;28;45527;-81
2022/03/19 06:09:39;;;;;;;;;75.50;56.50;;;;;10.71;73.40;100562.53;5039217;28;47852;-82
2022/03/19 06:12:05;;;;;;;;;71.00;55.50;;;;;10.71;73.26;100566.03;5030978;28;45389;-82
2022/03/19 06:14:30;;;;;;;;;72.33;54.33;;;;;10.71;73.07;100565.16;5053814;28;45458;-81
2022/03/19 06:16:56;;;;;;;;;76.50;58.00;;;;;10.73;72.98;100564.22;5048458;28;45699;-82
2022/03/19 06:19:21;;;;;;;;;73.00;57.00;;;;;10.75;72.95;100574.72;5051915;28;45331;-81
2022/03/19 06:21:47;;;;;;;;;71.00;54.25;;;;;10.78;73.05;100579.97;5056802;28;45169;-82
2022/03/19 06:24:13;;;;;;;;;72.33;55.00;;;;;10.81;72.32;100578.16;5055565;28;45398;-82
2022/03/19 06:26:38;;;;;;;;;69.33;53.33;;;;;10.84;71.97;100585.13;5057837;28;45423;-82
2022/03/19 06:29:05;;;;;;;;;73.75;57.00;;;;;10.84;71.77;100579.88;5047772;28;46137;-81
2022/03/19 06:31:30;;;;;;;;;70.00;55.00;;;;;10.85;71.43;100589.53;5032548;28;45524;-82
2022/03/19 06:33:56;;;;;;;;;65.33;53.67;;;;;10.85;71.52;100584.25;5047830;28;45568;-81
2022/03/19 06:39:06;;;;;;;;;69.67;54.00;;;;;10.84;71.19;100585.13;5056259;28;45495;-82
2022/03/19 06:41:33;;;;;;;;;75.67;57.00;;;;;10.85;71.26;100597.44;5055688;28;45388;-81
2022/03/19 06:43:58;;;;;;;;;65.33;49.67;;;;;10.87;70.95;100597.41;5052574;28;45227;-81
2022/03/19 06:46:24;;;;;;;;;71.67;54.33;;;;;10.87;70.66;100585.09;5054810;28;45523;-81
2022/03/19 06:48:50;;;;;;;;;65.67;51.67;;;;;10.88;70.35;100591.25;5055850;28;46228;-81
2022/03/19 06:51:17;;;;;;;;;73.67;57.00;;;;;10.86;70.33;100593.03;5057148;28;45398;-81
2022/03/19 06:53:43;;;;;;;;;71.00;55.00;;;;;10.88;70.02;100591.25;5056345;28;45382;-81
2022/03/19 06:56:09;;;;;;;;;73.50;55.00;;;;;10.86;69.80;100588.63;5055637;28;45488;-80
2022/03/19 06:58:34;;;;;;;;;72.33;56.67;;;;;10.86;69.77;100593.03;5057548;28;46052;-80
2022/03/19 07:01:01;;;;;;;;;69.67;52.00;;;;;10.87;69.51;100593.00;5059024;28;45535;-80
2022/03/19 07:03:26;;;;;;;;;70.33;53.33;;;;;10.91;69.11;100585.88;5054892;28;45397;-80
2022/03/19 07:05:52;;;;;;;;;74.00;57.00;;;;;10.93;68.72;100589.38;5054703;28;45629;-80
2022/03/19 07:08:17;;;;;;;;;68.67;53.67;;;;;10.95;68.10;100585.81;5054569;28;45701;-80
2022/03/19 07:10:43;;;;;;;;;64.00;51.67;;;;;10.98;68.21;100583.13;5054213;28;45424;-79
2022/03/19 07:13:08;;;;;;;;;65.00;51.33;;;;;11.01;67.89;100588.34;5053180;28;45381;-80
2022/03/19 07:15:34;;;;;;;;;62.67;50.33;;;;;11.05;67.84;100584.75;5054723;28;45482;-79
2022/03/19 07:18:00;;;;;;;;;67.00;51.67;;;;;11.08;67.22;100582.03;5056142;28;45608;-79
2022/03/19 07:20:27;;;;;;;;;66.00;51.00;;;;;11.12;66.83;100582.84;5055115;28;45300;-80
2022/03/19 07:22:59;;;;;;;;;68.00;52.00;;;;;11.13;66.74;100584.59;5051322;28;45409;-79
2022/03/19 07:25:31;;;;;;;;;68.67;53.67;;;;;11.15;66.52;100581.03;5055641;28;45573;-80
2022/03/19 07:28:00;;;;;;;;;67.00;52.00;;;;;11.19;66.66;100585.38;5055546;28;45995;-81
2022/03/19 07:30:27;;;;;;;;;66.00;52.00;;;;;11.26;66.26;100583.47;5065884;28;45439;-80
2022/03/19 07:32:52;;;;;;;;;59.67;47.67;;;;;11.31;65.84;100588.66;5046973;28;45232;-80
2022/03/19 07:35:18;;;;;;;;;65.00;51.67;;;;;11.38;65.88;100587.66;5053449;28;45588;-69
2022/03/19 07:37:45;;;;;;;;;68.33;50.00;;;;;11.46;65.60;100586.56;5044996;28;45509;-74
2022/03/19 07:40:13;;;;;;;;;62.33;49.67;;;;;11.55;65.20;100590.81;5052922;28;45488;-74
2022/03/19 07:42:39;;;;;;;;;66.00;51.33;;;;;11.63;64.93;100595.94;5040523;28;45493;-74
2022/03/19 07:45:05;;;;;;;;;67.00;53.00;;;;;11.68;64.87;100591.44;5043176;28;45366;-73
2022/03/19 07:47:31;;;;;;;;;64.67;51.00;;;;;11.76;64.17;100594.78;5018287;28;46673;-68
2022/03/19 07:49:57;;;;;;;;;62.33;47.33;;;;;11.83;63.81;100588.50;5011488;28;45352;-74
2022/03/19 07:52:24;;;;;;;;;60.33;48.00;;;;;11.90;62.69;100592.72;4996873;28;45520;-74
2022/03/19 07:54:50;;;;;;;;;52.67;40.00;;;;;11.95;62.46;100593.50;4995125;28;45465;-74
2022/03/19 07:57:16;;;;;;;;;67.33;49.00;;;;;11.99;62.11;100589.00;5010753;28;46672;-74
2022/03/19 07:59:41;;;;;;;;;61.33;49.33;;;;;12.05;61.58;100586.25;5013644;28;45520;-73
2022/03/19 08:02:07;;;;;;;;;65.67;51.33;;;;;12.08;60.97;100589.66;5014420;28;45586;-74
2022/03/19 08:04:32;;;;;;;;;56.33;45.67;;;;;12.09;61.45;100582.59;5016195;28;45456;-74
2022/03/19 08:06:58;;;;;;;;;59.33;45.67;;;;;12.11;60.83;100578.16;4997905;28;48196;-73
2022/03/19 08:09:24;;;;;;;;;65.00;49.67;;;;;12.13;60.37;100582.50;5015977;28;45355;-73
2022/03/19 08:11:51;;;;;;;;;63.33;48.67;;;;;12.19;60.10;100581.50;5014475;28;45366;-74
2022/03/19 08:14:18;;;;;;;;;69.00;54.00;;;;;12.23;60.37;100580.53;5014254;28;45333;-74
2022/03/19 08:16:50;;;;;;;;;63.50;48.00;;;;;12.27;60.54;100576.03;4996533;28;46873;-74
2022/03/19 08:19:18;;;;;;;;;58.67;47.33;;;;;12.32;60.51;100577.66;5013945;28;45453;-74
2022/03/19 08:21:44;;;;;;;;;61.33;50.00;;;;;12.40;60.59;100580.13;5015558;28;45459;-74
2022/03/19 08:24:10;;;;;;;;;62.33;48.00;;;;;12.46;59.97;100578.19;5013874;28;45555;-73
2022/03/19 08:26:37;;;;;;;;;62.67;49.67;;;;;12.52;59.74;100566.59;5012688;28;46247;-73
2022/03/19 08:29:03;;;;;;;;;63.33;48.00;;;;;12.56;59.35;100561.22;5014605;28;45445;-74
2022/03/19 08:31:29;;;;;;;;;61.67;48.67;;;;;12.66;59.37;100563.59;5014807;28;45493;-73
2022/03/19 08:33:55;;;;;;;;;62.00;49.00;;;;;12.74;58.81;100570.41;5014282;28;45396;-73
2022/03/19 08:36:20;;;;;;;;;59.33;47.67;;;;;12.84;58.85;100566.66;5013993;28;45459;-74
2022/03/19 08:41:30;;;;;;;;;60.00;48.00;;;;;13.03;58.11;100566.16;5013666;28;45465;-74
2022/03/19 08:43:57;;;;;;;;;62.00;48.33;;;;;13.09;58.12;100560.69;5014394;28;45561;-74
2022/03/19 08:46:22;;;;;;;;;59.33;47.00;;;;;13.08;57.97;100559.81;5011796;28;47300;-74
2022/03/19 08:48:47;;;;;;;;;60.00;48.33;;;;;13.10;57.43;100557.13;5014322;28;45537;-73
2022/03/19 08:53:58;;;;;;;;;58.67;47.00;;;;;13.10;57.50;100554.47;5009587;28;45366;-73
2022/03/19 08:56:23;;;;;;;;;66.00;52.00;;;;;13.10;57.37;100557.13;5008390;28;47736;-75
2022/03/19 08:58:49;;;;;;;;;69.67;52.67;;;;;13.09;56.87;100553.59;5013667;28;45434;-75
2022/03/19 09:01:14;;;;;;;;;59.00;47.00;;;;;13.06;56.91;100553.72;5008888;28;46008;-74
2022/03/19 09:03:40;;;;;;;;;57.67;46.33;;;;;13.03;56.74;100553.78;5013720;28;45371;-75
2022/03/19 09:06:06;;;;;;;;;63.33;50.00;;;;;13.03;56.14;100550.28;5013117;28;45394;-75
2022/03/19 09:08:31;;;;;;;;;56.67;46.67;;;;;13.04;56.43;100549.38;4996508;28;45464;-74
2022/03/19 09:10:57;;;;;;;;;53.33;43.00;;;;;13.07;57.07;100559.88;5019520;28;45432;-74
2022/03/19 09:13:23;;;;;;;;;56.67;45.00;;;;;13.09;56.86;100553.59;5016369;28;45518;-74
2022/03/19 09:15:49;;;;;;;;;60.67;47.33;;;;;13.12;56.46;100558.81;5017070;28;46236;-74
2022/03/19 09:18:16;;;;;;;;;58.00;47.67;;;;;13.17;56.30;100551.66;5016636;28;45350;-74
2022/03/19 09:20:41;;;;;;;;;64.67;52.00;;;;;13.22;55.94;100556.84;5019701;28;45510;-70
2022/03/19 09:23:07;;;;;;;;;61.00;47.33;;;;;13.23;56.16;100554.16;5015574;28;45496;-73
2022/03/19 09:25:32;;;;;;;;;61.67;49.00;;;;;13.27;56.41;100554.91;5010361;28;46462;-73
2022/03/19 09:27:58;;;;;;;;;67.33;52.00;;;;;13.32;56.31;100555.66;4996978;28;45515;-72
2022/03/19 09:30:23;;;;;;;;;68.67;52.67;;;;;13.35;56.50;100550.28;5016952;28;45416;-73
2022/03/19 09:32:49;;;;;;;;;57.67;46.00;;;;;13.39;56.29;100551.94;5015440;28;45619;-72
2022/03/19 09:35:14;;;;;;;;;68.00;51.50;;;;;13.43;56.57;100544.75;5015385;28;45651;-73
2022/03/19 09:37:40;;;;;;;;;63.00;50.33;;;;;13.46;56.70;100540.22;5019207;28;45493;-74
2022/03/19 09:40:06;;;;;;;;;62.00;49.00;;;;;13.51;56.65;100538.31;5017414;28;45380;-74
2022/03/19 09:42:34;;;;;;;;;66.33;49.00;;;;;13.60;57.02;100539.81;5021004;28;45353;-74
2022/03/19 09:45:00;;;;;;;;;63.33;50.33;;;;;13.64;55.57;100538.81;5015615;28;46833;-71
2022/03/19 09:47:26;;;;;;;;;63.33;48.00;;;;;13.68;55.72;100536.94;5016837;28;45438;-73
2022/03/19 09:49:52;;;;;;;;;63.33;48.67;;;;;13.79;55.97;100526.88;5016929;28;45314;-74
2022/03/19 09:52:24;;;;;;;;;61.00;47.33;;;;;13.88;56.19;100526.63;5016555;28;45500;-74
2022/03/19 09:54:50;;;;;;;;;56.33;45.00;;;;;13.93;56.22;100519.38;5008439;28;46343;-72
2022/03/19 09:57:15;;;;;;;;;66.33;52.33;;;;;13.93;55.89;100519.38;4997896;28;45349;-73
2022/03/19 09:59:41;;;;;;;;;64.00;50.00;;;;;13.94;55.89;100519.31;5013355;28;45587;-72
2022/03/19 10:02:07;;;;;;;;;64.33;50.67;;;;;13.99;56.00;100521.84;5010937;28;45461;-72
2022/03/19 10:04:33;;;;;;;;;63.00;49.00;;;;;14.04;55.82;100516.38;5013741;28;45441;-72
2022/03/19 10:09:43;;;;;;;;;59.67;46.33;;;;;14.13;56.06;100506.34;5023136;28;45474;-71
2022/03/19 10:12:31;;;;;;;;;60.67;48.33;;;;;14.18;56.28;100501.75;4997007;28;45434;-73
2022/03/19 10:14:58;;;;;;;;;61.33;48.33;;;;;14.22;56.05;100503.41;5031992;28;47145;-73
2022/03/19 10:17:29;;;;;;;;;62.00;47.00;;;;;14.23;55.64;100499.84;5016608;28;45366;-72
2022/03/19 10:20:05;;;;;;;;;57.00;45.67;;;;;14.30;56.04;100496.03;5033748;28;45489;-73
2022/03/19 10:22:31;;;;;;;;;60.00;49.00;;;;;14.36;55.91;100488.81;5015827;28;45423;-73
2022/03/19 10:25:00;;;;;;;;;62.33;46.00;;;;;14.37;55.22;100494.06;5016595;28;45774;-73
2022/03/19 10:27:25;;;;;;;;;61.00;47.00;;;;;14.42;55.22;100494.78;5016041;28;45370;-73
2022/03/19 10:30:02;;;;;;;;;52.00;43.00;;;;;14.42;55.27;100483.31;5016805;28;45377;-73
2022/03/19 10:32:28;;;;;;;;;63.00;48.67;;;;;14.38;55.88;100477.22;5016114;28;45404;-73
2022/03/19 10:34:54;;;;;;;;;56.00;44.00;;;;;14.41;55.52;100479.78;5014733;28;47142;-73
2022/03/19 10:37:39;;;;;;;;;61.67;49.67;;;;;14.44;55.09;100469.06;5015403;28;45574;-73
2022/03/19 10:40:08;;;;;;;;;55.33;46.33;;;;;14.49;55.21;100466.28;5015081;28;45473;-74
2022/03/19 10:42:42;;;;;;;;;59.67;47.00;;;;;14.51;55.33;100462.66;5015922;28;45513;-73
2022/03/19 10:45:10;;;;;;;;;59.33;47.00;;;;;14.55;55.17;100460.75;5014603;28;46808;-74
2022/03/19 10:47:53;;;;;;;;;61.33;48.00;;;;;14.60;55.25;100453.47;5001966;28;45348;-74
2022/03/19 10:50:21;;;;;;;;;62.67;47.33;;;;;14.66;55.19;100446.19;5015627;28;45538;-74
2022/03/19 10:52:49;;;;;;;;;57.00;46.33;;;;;14.74;54.73;100442.41;5015939;28;45505;-74
2022/03/19 10:55:15;;;;;;;;;57.67;45.00;;;;;14.77;54.57;100442.25;5015711;28;45222;-73
2022/03/19 10:57:41;;;;;;;;;58.67;44.67;;;;;14.73;54.58;100440.66;4997862;28;45454;-74
2022/03/19 11:00:08;;;;;;;;;60.33;46.67;;;;;14.76;54.04;100435.22;5014784;28;45511;-73
2022/03/19 11:02:35;;;;;;;;;60.67;45.67;;;;;14.72;53.90;100431.84;5015554;28;45503;-73
2022/03/19 11:05:01;;;;;;;;;56.67;45.00;;;;;14.73;54.30;100422.94;5015495;28;46354;-73
2022/03/19 11:07:33;;;;;;;;;57.00;45.00;;;;;14.77;54.25;100421.91;4996913;28;45444;-73
2022/03/19 11:10:04;;;;;;;;;55.67;43.67;;;;;14.84;53.98;100414.59;5014697;28;45439;-73
2022/03/19 11:12:32;;;;;;;;;51.33;41.67;;;;;14.89;53.89;100413.50;5016139;28;45426;-73
2022/03/19 11:14:59;;;;;;;;;59.00;46.67;;;;;14.92;54.04;100415.16;5015707;28;45992;-73
2022/03/19 11:17:32;;;;;;;;;61.33;46.33;;;;;15.00;54.52;100410.44;5015447;28;45588;-73
2022/03/19 11:20:04;;;;;;;;;58.00;45.67;;;;;15.06;53.73;100412.00;5015535;28;45441;-73